Time;durP1;ratioP1;P1;durP2;ratioP2;P2;SDS_P1;SDS_P2;PMS_P1;PMS_P2;Temp;Humidity;BMP_temperature;BMP_pressure;BME280_temperature;BME280_humidity;BME280_pressure;Samples;Min_cycle;Max_cycle;Signal;HPM_P1;HPM_P2
2021/09/20 00:01:42;;;;;;;9.10;7.22;;;;;;;13.56;63.59;100457.59;5032946;28;20378;-60
2021/09/20 00:04:10;;;;;;;8.32;7.00;;;;;;;13.48;64.09;100452.84;5031261;28;20053;-59
2021/09/20 00:06:37;;;;;;;8.85;7.45;;;;;;;13.37;63.57;100456.00;5027065;28;20410;-60
2021/09/20 00:09:05;;;;;;;9.07;7.22;;;;;;;13.32;64.41;100456.19;5032557;28;20057;-59
2021/09/20 00:11:32;;;;;;;9.18;7.60;;;;;;;13.25;64.45;100455.00;5032709;28;20049;-60
2021/09/20 00:14:00;;;;;;;10.68;7.22;;;;;;;13.17;64.71;100463.09;5032693;28;20053;-60
2021/09/20 00:16:29;;;;;;;9.95;7.15;;;;;;;13.12;65.26;100462.44;5032914;28;20053;-60
2021/09/20 00:18:57;;;;;;;8.63;6.80;;;;;;;13.03;65.18;100462.47;5032902;28;20140;-60
2021/09/20 00:21:26;;;;;;;9.10;7.55;;;;;;;12.96;65.22;100462.16;5032946;28;20046;-60
2021/09/20 00:23:54;;;;;;;9.48;7.40;;;;;;;12.89;65.78;100471.06;5032106;28;20041;-59
2021/09/20 00:26:21;;;;;;;9.68;7.43;;;;;;;12.80;65.63;100457.06;5032436;28;20057;-60
2021/09/20 00:28:48;;;;;;;9.77;7.22;;;;;;;12.69;66.25;100458.56;5032794;28;20057;-60
2021/09/20 00:31:16;;;;;;;10.05;7.30;;;;;;;12.59;67.01;100462.50;5032579;28;20054;-60
2021/09/20 00:33:45;;;;;;;9.52;7.93;;;;;;;12.49;67.30;100462.81;5033148;28;20053;-60
2021/09/20 00:36:12;;;;;;;10.18;7.82;;;;;;;12.44;67.35;100464.97;5034327;28;20402;-60
2021/09/20 00:38:39;;;;;;;9.70;7.47;;;;;;;12.39;67.33;100466.75;5036039;28;20057;-59
2021/09/20 00:41:07;;;;;;;11.00;8.10;;;;;;;12.35;67.26;100470.53;5034689;28;20057;-60
2021/09/20 00:43:34;;;;;;;10.18;7.60;;;;;;;12.34;67.27;100466.91;5035908;28;20056;-60
2021/09/20 00:46:05;;;;;;;11.63;8.02;;;;;;;12.33;67.44;100479.25;5035849;28;20061;-60
2021/09/20 00:48:33;;;;;;;10.40;8.23;;;;;;;12.31;67.75;100464.78;5035915;28;20054;-60
2021/09/20 00:51:01;;;;;;;9.15;7.85;;;;;;;12.31;67.45;100469.56;5036073;28;20057;-60
2021/09/20 00:53:29;;;;;;;9.43;7.68;;;;;;;12.32;67.82;100469.19;5035876;28;20086;-59
2021/09/20 00:55:57;;;;;;;9.43;7.55;;;;;;;12.34;67.33;100477.25;5035506;28;20049;-60
2021/09/20 00:58:25;;;;;;;9.90;7.72;;;;;;;12.39;67.71;100477.13;5035579;28;20402;-60
2021/09/20 01:00:52;;;;;;;10.40;7.35;;;;;;;12.46;67.32;100483.03;5035529;28;20060;-60
2021/09/20 01:03:20;;;;;;;8.95;6.97;;;;;;;12.51;67.45;100479.25;5035231;28;20065;-60
2021/09/20 01:05:47;;;;;;;9.95;7.43;;;;;;;12.48;67.51;100477.94;5035695;28;20046;-60
2021/09/20 01:08:16;;;;;;;11.45;7.07;;;;;;;12.58;67.35;100479.59;5035705;28;20447;-60
2021/09/20 01:10:43;;;;;;;9.77;7.78;;;;;;;12.64;67.40;100483.03;5035420;28;20060;-60
2021/09/20 01:13:11;;;;;;;11.30;6.85;;;;;;;12.70;66.77;100487.31;5034879;28;20056;-60
2021/09/20 01:15:38;;;;;;;10.75;6.78;;;;;;;12.70;66.75;100484.53;5035523;28;20049;-60
2021/09/20 01:18:06;;;;;;;9.30;7.28;;;;;;;12.78;67.17;100480.91;5026968;28;20065;-60
2021/09/20 01:20:33;;;;;;;8.27;7.03;;;;;;;12.83;67.36;100488.31;5015725;28;20056;-60
2021/09/20 01:23:02;;;;;;;9.98;7.05;;;;;;;12.82;67.70;100481.09;5015494;28;20503;-59
2021/09/20 01:25:31;;;;;;;11.65;7.97;;;;;;;12.83;67.40;100491.94;5033733;28;20053;-60
2021/09/20 01:27:58;;;;;;;8.82;7.32;;;;;;;12.86;67.53;100491.28;5035336;28;20053;-60
2021/09/20 01:30:26;;;;;;;8.63;7.20;;;;;;;12.95;67.02;100478.09;5035148;28;20398;-60
2021/09/20 01:32:54;;;;;;;8.93;6.85;;;;;;;12.99;66.80;100489.44;5035438;28;20050;-59
2021/09/20 01:35:23;;;;;;;9.60;7.40;;;;;;;12.96;66.79;100485.34;5034643;28;20057;-60
2021/09/20 01:37:50;;;;;;;9.73;7.32;;;;;;;12.99;66.69;100484.66;5035236;28;20355;-60
2021/09/20 01:40:19;;;;;;;10.50;7.10;;;;;;;13.05;66.27;100484.53;5034404;28;20061;-60
2021/09/20 01:42:49;;;;;;;9.77;7.53;;;;;;;13.06;66.29;100487.00;5034711;28;20049;-60
2021/09/20 01:45:16;;;;;;;8.95;6.60;;;;;;;13.07;66.34;100479.41;5035002;28;20061;-60
2021/09/20 01:47:44;;;;;;;9.55;7.15;;;;;;;13.15;66.53;100486.97;5034440;28;20395;-59
2021/09/20 01:50:14;;;;;;;8.70;6.90;;;;;;;13.16;65.11;100483.00;5034832;28;20463;-59
2021/09/20 01:52:42;;;;;;;8.18;7.05;;;;;;;13.22;65.22;100484.47;5034372;28;20050;-59
2021/09/20 01:55:11;;;;;;;10.10;7.15;;;;;;;13.24;64.58;100482.19;5034638;28;20053;-59
2021/09/20 01:57:40;;;;;;;9.95;7.47;;;;;;;13.26;64.49;100488.25;5034650;28;20045;-60
2021/09/20 02:00:10;;;;;;;8.60;7.70;;;;;;;13.24;64.13;100479.38;5034628;28;20053;-60
2021/09/20 02:02:38;;;;;;;9.70;7.55;;;;;;;13.23;63.62;100472.16;5034642;28;20482;-59
2021/09/20 02:05:07;;;;;;;9.70;7.20;;;;;;;13.26;63.75;100488.25;5032949;28;20057;-60
2021/09/20 02:07:34;;;;;;;8.82;6.82;;;;;;;13.26;64.41;100482.66;5014846;28;20446;-60
2021/09/20 02:10:02;;;;;;;9.77;7.40;;;;;;;13.26;64.18;100481.84;5028911;28;20057;-60
2021/09/20 02:12:29;;;;;;;8.05;6.95;;;;;;;13.28;63.90;100483.16;5034451;28;20454;-59
2021/09/20 02:14:58;;;;;;;9.05;7.32;;;;;;;13.29;64.97;100486.78;5034111;28;20052;-60
2021/09/20 02:17:26;;;;;;;9.23;6.80;;;;;;;13.32;64.15;100477.75;5034188;28;20470;-60
2021/09/20 02:19:53;;;;;;;13.63;7.57;;;;;;;13.37;63.41;100481.19;5034208;28;20061;-58
2021/09/20 02:22:20;;;;;;;10.60;7.00;;;;;;;13.38;63.25;100479.22;5034234;28;20060;-59
2021/09/20 02:24:48;;;;;;;10.07;7.72;;;;;;;13.38;63.40;100480.03;5033123;28;20422;-60
2021/09/20 02:27:15;;;;;;;8.80;7.70;;;;;;;13.39;63.96;100476.06;5034164;28;20056;-60
2021/09/20 02:29:43;;;;;;;7.38;6.47;;;;;;;13.39;63.71;100478.88;5034479;28;20426;-58
2021/09/20 02:32:12;;;;;;;9.32;7.45;;;;;;;13.39;63.51;100469.66;5033977;28;20467;-59
2021/09/20 02:34:39;;;;;;;9.25;7.82;;;;;;;13.42;63.94;100473.75;5034169;28;20049;-59
2021/09/20 02:37:06;;;;;;;9.18;7.10;;;;;;;13.46;64.10;100483.97;5033662;28;20060;-58
2021/09/20 02:39:34;;;;;;;9.07;7.68;;;;;;;13.49;63.00;100480.50;5033259;28;20061;-59
2021/09/20 02:42:01;;;;;;;11.05;6.85;;;;;;;13.53;62.85;100480.66;5033741;28;20505;-59
2021/09/20 02:44:29;;;;;;;8.43;7.20;;;;;;;13.55;62.41;100481.16;5033347;28;20049;-59
2021/09/20 02:46:56;;;;;;;9.75;7.53;;;;;;;13.53;62.56;100475.06;5033566;28;20053;-59
2021/09/20 02:49:25;;;;;;;9.38;7.30;;;;;;;13.52;62.78;100485.44;5033696;28;20053;-59
2021/09/20 02:51:52;;;;;;;10.48;8.18;;;;;;;13.54;62.42;100485.09;5034108;28;20064;-59
2021/09/20 02:54:19;;;;;;;9.15;7.35;;;;;;;13.42;62.79;100479.34;5033766;28;20049;-59
2021/09/20 02:56:46;;;;;;;9.07;7.60;;;;;;;13.47;62.48;100477.22;5033803;28;20068;-58
2021/09/20 02:59:14;;;;;;;10.15;7.32;;;;;;;13.46;62.04;100485.94;5032448;28;20054;-59
2021/09/20 03:01:41;;;;;;;9.98;7.60;;;;;;;13.51;62.41;100480.16;5033424;28;20057;-59
2021/09/20 03:04:09;;;;;;;10.00;7.22;;;;;;;13.57;62.62;100476.03;5033665;28;20056;-58
2021/09/20 03:06:37;;;;;;;10.93;7.25;;;;;;;13.61;62.17;100474.22;5033356;28;20394;-59
2021/09/20 03:09:05;;;;;;;9.00;7.20;;;;;;;13.58;61.68;100480.47;5033034;28;20057;-59
2021/09/20 03:11:32;;;;;;;7.85;7.05;;;;;;;13.57;62.06;100476.03;5033311;28;20367;-58
2021/09/20 03:13:59;;;;;;;9.48;6.63;;;;;;;13.58;61.97;100478.47;5033322;28;20053;-58
2021/09/20 03:16:27;;;;;;;8.45;6.85;;;;;;;13.58;62.72;100483.25;5033009;28;20049;-59
2021/09/20 03:18:54;;;;;;;8.85;6.88;;;;;;;13.63;62.09;100485.06;5033029;28;20057;-59
2021/09/20 03:21:23;;;;;;;9.13;7.43;;;;;;;13.64;61.55;100487.53;5033325;28;20057;-59
2021/09/20 03:23:53;;;;;;;8.65;7.75;;;;;;;13.65;61.80;100494.78;5032388;28;20479;-58
2021/09/20 03:26:20;;;;;;;9.88;7.10;;;;;;;13.64;62.22;100487.53;5033339;28;20053;-59
2021/09/20 03:28:48;;;;;;;8.77;7.25;;;;;;;13.66;61.82;100492.78;5033152;28;20537;-58
2021/09/20 03:31:15;;;;;;;8.95;7.25;;;;;;;13.68;61.97;100484.88;5033077;28;20077;-58
2021/09/20 03:33:42;;;;;;;9.10;7.35;;;;;;;13.68;60.77;100493.28;5033129;28;20057;-59
2021/09/20 03:36:11;;;;;;;8.85;6.90;;;;;;;13.67;61.20;100492.47;5033022;28;20046;-59
2021/09/20 03:38:38;;;;;;;8.23;6.93;;;;;;;13.60;60.95;100486.56;5032826;28;20053;-59
2021/09/20 03:41:07;;;;;;;9.85;7.63;;;;;;;13.57;61.60;100492.81;5033251;28;20144;-58
2021/09/20 03:43:35;;;;;;;8.18;6.93;;;;;;;13.53;61.02;100498.25;5033184;28;20132;-59
2021/09/20 03:46:03;;;;;;;7.90;6.93;;;;;;;13.50;61.57;100503.69;5032911;28;20375;-57
2021/09/20 03:48:31;;;;;;;9.25;7.00;;;;;;;13.50;61.65;100496.16;5032739;28;20426;-59
2021/09/20 03:50:58;;;;;;;8.98;6.70;;;;;;;13.52;61.14;100506.97;5032700;28;20053;-59
2021/09/20 03:53:26;;;;;;;8.68;7.10;;;;;;;13.50;61.78;100504.53;5032440;28;20053;-58
2021/09/20 03:55:53;;;;;;;8.38;6.30;;;;;;;13.50;62.00;100509.28;5033031;28;20057;-59
2021/09/20 03:58:22;;;;;;;8.60;6.57;;;;;;;13.52;61.95;100515.38;5033000;28;20053;-58
2021/09/20 04:00:49;;;;;;;8.77;7.30;;;;;;;13.52;61.69;100515.38;5032526;28;20049;-59
2021/09/20 04:03:17;;;;;;;8.30;6.75;;;;;;;13.54;61.69;100510.28;5032984;28;20479;-59
2021/09/20 04:05:44;;;;;;;7.43;6.40;;;;;;;13.56;61.45;100513.56;5033007;28;20049;-58
2021/09/20 04:08:15;;;;;;;7.95;6.88;;;;;;;13.59;61.73;100507.31;5032407;28;20057;-59
2021/09/20 04:10:44;;;;;;;8.93;6.80;;;;;;;13.64;61.73;100517.50;5035263;28;20061;-57
2021/09/20 04:13:12;;;;;;;;;;;;;;;13.60;61.53;100520.13;5036020;28;20057;-58
2021/09/20 04:15:40;;;;;;;8.05;6.40;;;;;;;13.59;61.12;100526.91;5036699;28;19921;-59
2021/09/20 04:18:08;;;;;;;8.63;6.55;;;;;;;13.62;61.55;100514.22;5036832;28;20053;-59
2021/09/20 04:20:35;;;;;;;8.18;7.22;;;;;;;13.65;61.48;100519.97;5036435;28;20053;-59
2021/09/20 04:23:03;;;;;;;9.20;6.47;;;;;;;13.69;60.90;100518.16;5036332;28;20080;-59
2021/09/20 04:25:30;;;;;;;8.10;6.65;;;;;;;13.70;60.89;100516.97;5035851;28;20068;-60
2021/09/20 04:27:58;;;;;;;8.77;7.00;;;;;;;13.73;60.89;100519.13;5036494;28;20057;-59
2021/09/20 04:30:25;;;;;;;7.03;6.07;;;;;;;13.78;60.47;100529.31;5036087;28;20390;-60
2021/09/20 04:32:54;;;;;;;7.35;6.28;;;;;;;13.73;60.38;100535.06;5036348;28;20057;-60
2021/09/20 04:35:21;;;;;;;8.23;6.63;;;;;;;13.79;60.65;100530.94;5035737;28;20041;-59
2021/09/20 04:37:48;;;;;;;8.93;6.40;;;;;;;13.77;60.68;100539.69;5036023;28;20049;-59
2021/09/20 04:40:16;;;;;;;9.05;6.35;;;;;;;13.80;60.42;100541.81;5035943;28;20057;-59
2021/09/20 04:42:43;;;;;;;8.48;6.78;;;;;;;13.81;60.12;100549.03;5035325;28;20053;-60
2021/09/20 04:45:11;;;;;;;8.75;7.35;;;;;;;13.72;61.38;100551.06;5036100;28;20486;-60
2021/09/20 04:47:38;;;;;;;6.75;6.05;;;;;;;13.81;60.62;100549.03;5036164;28;20072;-59
2021/09/20 04:50:08;;;;;;;8.80;6.80;;;;;;;13.84;59.65;100546.72;5036033;28;20056;-58
2021/09/20 04:52:35;;;;;;;;;;;;;;;13.76;61.08;100551.22;5036261;28;20064;-59
2021/09/20 04:55:03;;;;;;;7.43;6.43;;;;;;;13.80;60.90;100552.19;5035832;28;19968;-59
2021/09/20 04:57:30;;;;;;;8.52;6.47;;;;;;;13.85;60.47;100545.59;5035691;28;20053;-59
2021/09/20 04:59:58;;;;;;;7.75;6.68;;;;;;;13.85;60.58;100551.19;5035541;28;20049;-60
2021/09/20 05:02:25;;;;;;;8.43;6.78;;;;;;;13.89;59.66;100546.56;5035356;28;20057;-58
2021/09/20 05:04:53;;;;;;;7.55;6.63;;;;;;;13.88;59.53;100559.75;5035546;28;20057;-59
2021/09/20 05:07:21;;;;;;;7.38;6.65;;;;;;;13.90;59.73;100557.44;5015816;28;20065;-60
2021/09/20 05:09:49;;;;;;;7.17;6.43;;;;;;;13.92;59.66;100560.72;5015793;28;20376;-58
2021/09/20 05:12:16;;;;;;;7.78;6.82;;;;;;;13.91;59.07;100561.06;5028987;28;20057;-59
2021/09/20 05:14:44;;;;;;;9.70;6.88;;;;;;;13.94;59.72;100565.97;5031669;28;20057;-59
2021/09/20 05:17:11;;;;;;;8.20;6.75;;;;;;;13.94;59.85;100561.22;5035428;28;20045;-59
2021/09/20 05:19:38;;;;;;;9.40;7.28;;;;;;;13.97;59.45;100568.94;5035138;28;20053;-60
2021/09/20 05:22:06;;;;;;;9.80;6.85;;;;;;;13.99;59.49;100563.81;5033774;28;20049;-60
2021/09/20 05:24:35;;;;;;;7.50;6.75;;;;;;;14.01;59.37;100563.50;5034682;28;20053;-59
2021/09/20 05:27:02;;;;;;;7.90;6.63;;;;;;;14.04;59.51;100562.00;5035044;28;20045;-59
2021/09/20 05:29:29;;;;;;;9.85;7.13;;;;;;;13.99;59.37;100563.81;5035083;28;20052;-60
2021/09/20 05:31:57;;;;;;;10.93;7.50;;;;;;;14.04;59.58;100559.19;5034354;28;20061;-60
2021/09/20 05:34:28;;;;;;;7.68;6.88;;;;;;;14.12;58.91;100566.72;5035357;28;20491;-60
2021/09/20 05:36:56;;;;;;;8.05;6.47;;;;;;;14.15;59.60;100568.84;5034081;28;20056;-60
2021/09/20 05:39:23;;;;;;;8.50;7.07;;;;;;;14.21;58.45;100575.91;5034586;28;20064;-60
2021/09/20 05:41:52;;;;;;;9.30;6.75;;;;;;;14.23;57.97;100576.41;5034504;28;20054;-60
2021/09/20 05:44:19;;;;;;;8.07;7.20;;;;;;;14.29;58.04;100577.84;5034972;28;20061;-60
2021/09/20 05:46:46;;;;;;;8.25;7.00;;;;;;;14.31;58.64;100580.31;5033718;28;20053;-60
2021/09/20 05:49:14;;;;;;;8.18;6.80;;;;;;;14.32;57.42;100579.16;5033591;28;20068;-60
2021/09/20 05:51:41;;;;;;;9.07;6.97;;;;;;;14.37;57.82;100578.97;5034250;28;20053;-60
2021/09/20 05:54:09;;;;;;;8.65;7.05;;;;;;;14.44;57.94;100581.25;5032555;28;20064;-60
2021/09/20 05:56:37;;;;;;;8.35;6.88;;;;;;;14.42;57.54;100581.56;5034580;28;20057;-60
2021/09/20 05:59:06;;;;;;;9.63;7.00;;;;;;;14.47;57.15;100586.16;5032418;28;20478;-60
2021/09/20 06:01:33;;;;;;;8.55;6.53;;;;;;;14.52;56.62;100585.97;5027078;28;20072;-60
2021/09/20 06:04:01;;;;;;;9.13;7.43;;;;;;;14.46;55.94;100588.16;5034005;28;20056;-60
2021/09/20 06:06:28;;;;;;;7.82;6.70;;;;;;;14.60;56.11;100585.97;5031575;28;20057;-60
2021/09/20 06:08:56;;;;;;;8.60;6.50;;;;;;;14.70;55.57;100589.53;5040428;28;20061;-60
2021/09/20 06:11:23;;;;;;;7.30;6.45;;;;;;;14.82;54.76;100586.81;5042456;28;20490;-60
2021/09/20 06:13:51;;;;;;;8.73;6.93;;;;;;;14.94;54.39;100592.50;5034473;28;20053;-59
2021/09/20 06:16:20;;;;;;;9.00;6.70;;;;;;;14.99;54.27;100603.53;5032062;28;20046;-60
2021/09/20 06:18:48;;;;;;;7.43;6.10;;;;;;;15.08;53.50;100605.47;5031728;28;20049;-59
2021/09/20 06:21:15;;;;;;;8.80;6.47;;;;;;;15.39;53.01;100600.22;5032473;28;20487;-60
2021/09/20 06:23:42;;;;;;;9.85;6.68;;;;;;;15.69;51.74;100599.28;5033052;28;20056;-60
2021/09/20 06:26:10;;;;;;;10.40;6.50;;;;;;;15.92;50.98;100600.56;5030703;28;20430;-60
2021/09/20 06:28:37;;;;;;;9.85;6.35;;;;;;;16.08;50.24;100603.50;5032757;28;20049;-60
2021/09/20 06:31:05;;;;;;;9.32;6.68;;;;;;;15.98;49.40;100604.78;5028854;28;20064;-60
2021/09/20 06:33:34;;;;;;;8.23;6.38;;;;;;;16.02;49.91;100605.72;5033095;28;20053;-59
2021/09/20 06:36:02;;;;;;;8.23;6.18;;;;;;;15.94;49.35;100603.03;5033397;28;20037;-60
2021/09/20 06:38:29;;;;;;;7.85;6.32;;;;;;;15.95;49.61;100601.84;5033183;28;20061;-60
2021/09/20 06:40:56;;;;;;;8.00;6.78;;;;;;;16.04;49.52;100610.97;5033903;28;20061;-61
2021/09/20 06:43:24;;;;;;;7.72;6.53;;;;;;;16.15;49.69;100609.38;5033424;28;20068;-57
2021/09/20 06:45:51;;;;;;;8.25;6.47;;;;;;;16.50;48.94;100608.91;5032118;28;20049;-60
2021/09/20 06:48:19;;;;;;;7.60;6.30;;;;;;;17.08;46.32;100602.34;5032885;28;20068;-61
2021/09/20 06:50:48;;;;;;;8.40;6.38;;;;;;;17.74;44.91;100610.28;5032897;28;20060;-60
2021/09/20 06:53:15;;;;;;;7.90;5.87;;;;;;;18.24;44.34;100605.22;5028067;28;20049;-60
2021/09/20 06:55:42;;;;;;;7.28;6.25;;;;;;;19.14;41.33;100613.03;5029853;28;20398;-60
2021/09/20 06:58:09;;;;;;;9.85;6.13;;;;;;;19.87;40.21;100617.81;5033957;28;20391;-58
2021/09/20 07:00:38;;;;;;;7.63;6.55;;;;;;;20.46;38.42;100620.47;5032179;28;20123;-58
2021/09/20 07:03:06;;;;;;;6.40;5.70;;;;;;;21.07;37.34;100610.13;5032597;28;20064;-59
2021/09/20 07:05:33;;;;;;;7.55;5.68;;;;;;;21.79;36.06;100606.22;5033362;28;20056;-59
2021/09/20 07:08:02;;;;;;;8.80;6.18;;;;;;;22.31;35.29;100608.38;5033008;28;20057;-57
2021/09/20 07:10:30;;;;;;;7.57;5.20;;;;;;;22.76;33.73;100603.47;5032616;28;20060;-60
2021/09/20 07:12:57;;;;;;;6.85;4.93;;;;;;;23.51;32.75;100604.72;5029044;28;20436;-60
2021/09/20 07:15:25;;;;;;;5.55;4.90;;;;;;;24.37;31.81;100615.53;5031347;28;20065;-60
2021/09/20 07:17:52;;;;;;;5.93;5.30;;;;;;;24.81;30.78;100608.63;5035109;28;20057;-60
2021/09/20 07:20:20;;;;;;;6.22;5.00;;;;;;;24.93;29.88;100613.09;5025090;28;20133;-60
2021/09/20 07:22:47;;;;;;;5.85;4.85;;;;;;;25.90;28.42;100610.75;5037115;28;20056;-60
2021/09/20 07:25:16;;;;;;;5.20;4.65;;;;;;;26.22;27.78;100611.75;5029639;28;20058;-60
2021/09/20 07:27:44;;;;;;;5.35;4.30;;;;;;;26.39;27.09;100607.16;5029269;28;20371;-60
2021/09/20 07:30:17;;;;;;;6.25;4.63;;;;;;;26.72;27.31;100620.75;5029972;28;20486;-60
2021/09/20 07:32:45;;;;;;;6.00;4.53;;;;;;;27.09;25.57;100624.09;5034552;28;20056;-60
2021/09/20 07:35:16;;;;;;;6.68;4.68;;;;;;;27.25;25.45;100626.38;5030280;28;20049;-60
2021/09/20 07:37:44;;;;;;;6.03;4.72;;;;;;;27.88;24.81;100631.75;5019083;28;20045;-61
2021/09/20 07:40:12;;;;;;;5.35;4.38;;;;;;;27.85;24.09;100621.97;5029928;28;20053;-61
2021/09/20 07:42:42;;;;;;;4.57;4.18;;;;;;;28.52;24.46;100625.09;5036321;28;20060;-60
2021/09/20 07:45:11;;;;;;;5.00;4.50;;;;;;;28.65;23.09;100628.16;5033077;28;20053;-61
2021/09/20 07:47:38;;;;;;;;;;;;;;;28.03;23.93;100632.38;5036328;28;20045;-60
2021/09/20 07:50:08;;;;;;;6.85;4.63;;;;;;;28.39;23.56;100629.78;5035143;28;20388;-60
2021/09/20 07:52:36;;;;;;;4.93;4.18;;;;;;;28.07;23.71;100636.00;5032899;28;20358;-61
2021/09/20 07:55:05;;;;;;;5.43;4.83;;;;;;;28.92;22.58;100641.63;5045680;28;20486;-61
2021/09/20 07:57:33;;;;;;;5.43;4.70;;;;;;;29.69;21.59;100637.69;5038669;28;20060;-61
2021/09/20 08:00:03;;;;;;;6.30;4.93;;;;;;;30.41;21.65;100633.22;5038143;28;20387;-61
2021/09/20 08:02:30;;;;;;;7.88;4.90;;;;;;;31.39;20.24;100631.47;5038591;28;20048;-61
2021/09/20 08:04:58;;;;;;;5.20;4.28;;;;;;;31.76;19.71;100642.31;5039918;28;20064;-61
2021/09/20 08:07:25;;;;;;;4.78;4.28;;;;;;;31.59;19.97;100640.78;5038910;28;20385;-61
2021/09/20 08:09:52;;;;;;;4.90;4.22;;;;;;;32.51;18.63;100639.19;5031646;28;20056;-61
2021/09/20 08:12:20;;;;;;;5.53;4.35;;;;;;;32.14;19.58;100641.59;5032517;28;20057;-60
2021/09/20 08:14:47;;;;;;;5.40;4.38;;;;;;;32.52;18.50;100637.09;5033067;28;20068;-61
2021/09/20 08:17:16;;;;;;;4.20;3.80;;;;;;;33.40;17.41;100646.03;5031463;28;20050;-60
2021/09/20 08:19:43;;;;;;;5.22;4.25;;;;;;;33.03;17.20;100645.66;5027500;28;20060;-60
2021/09/20 08:22:11;;;;;;;4.80;4.15;;;;;;;33.31;17.65;100635.22;5034218;28;20379;-60
2021/09/20 08:24:38;;;;;;;5.60;4.10;;;;;;;33.06;17.59;100638.97;5039653;28;20049;-60
2021/09/20 08:27:05;;;;;;;4.20;3.80;;;;;;;33.89;16.73;100642.56;5035353;28;20057;-60
2021/09/20 08:29:33;;;;;;;5.55;4.05;;;;;;;33.93;15.87;100643.19;5042765;28;20060;-59
2021/09/20 08:32:01;;;;;;;5.23;4.03;;;;;;;33.99;16.15;100652.06;5035934;28;20467;-60
2021/09/20 08:34:29;;;;;;;5.93;3.75;;;;;;;33.40;16.81;100654.69;5045660;28;20999;-60
2021/09/20 08:36:57;;;;;;;4.82;3.90;;;;;;;34.22;15.58;100658.63;5046809;28;20052;-60
2021/09/20 08:39:24;;;;;;;4.57;4.15;;;;;;;34.46;15.24;100661.78;5040388;28;20053;-60
2021/09/20 08:41:52;;;;;;;4.75;4.28;;;;;;;34.08;16.19;100671.53;5032513;28;20053;-60
2021/09/20 08:44:19;;;;;;;5.05;3.72;;;;;;;34.52;15.35;100666.47;5030787;28;20057;-60
2021/09/20 08:46:48;;;;;;;4.55;4.13;;;;;;;33.74;16.02;100674.06;5035045;28;20049;-60
2021/09/20 08:49:16;;;;;;;5.18;4.28;;;;;;;33.56;16.37;100674.72;5035521;28;20053;-60
2021/09/20 08:51:45;;;;;;;5.20;4.00;;;;;;;34.62;15.74;100678.06;5034009;28;20057;-60
2021/09/20 08:54:16;;;;;;;3.95;3.42;;;;;;;34.62;15.21;100675.97;5032478;28;20503;-60
2021/09/20 08:56:43;;;;;;;4.20;3.90;;;;;;;34.16;15.61;100667.91;5031649;28;20145;-60
2021/09/20 08:59:12;;;;;;;4.60;4.20;;;;;;;34.29;15.71;100676.50;5042942;28;21804;-60
2021/09/20 09:01:42;;;;;;;4.20;3.80;;;;;;;34.13;15.65;100670.97;5034205;28;20383;-60
2021/09/20 09:04:27;;;;;;;4.28;3.90;;;;;;;34.07;15.73;100676.50;5034310;28;20068;-60
2021/09/20 09:06:58;;;;;;;4.38;3.90;;;;;;;32.94;17.70;100677.31;5033654;28;20068;-60
2021/09/20 09:09:27;;;;;;;4.10;3.70;;;;;;;34.36;15.62;100675.41;5035304;28;20049;-60
2021/09/20 09:12:11;;;;;;;5.32;3.72;;;;;;;35.24;15.58;100683.72;5033025;28;20053;-60
2021/09/20 09:14:40;;;;;;;4.47;4.07;;;;;;;35.65;15.05;100680.69;5037447;28;20056;-60
2021/09/20 09:17:14;;;;;;;5.45;4.20;;;;;;;35.72;15.35;100683.22;5041802;28;20506;-60
2021/09/20 09:19:51;;;;;;;4.10;3.70;;;;;;;36.51;14.00;100685.28;5027816;28;20057;-60
2021/09/20 09:22:20;;;;;;;3.78;3.40;;;;;;;37.37;13.74;100672.19;5037139;28;20529;-60
2021/09/20 09:24:55;;;;;;;3.90;3.60;;;;;;;37.63;13.61;100684.09;5034075;28;20569;-59
2021/09/20 09:27:23;;;;;;;4.07;3.53;;;;;;;37.52;13.57;100681.75;5037704;28;20068;-59
2021/09/20 09:29:51;;;;;;;5.32;3.85;;;;;;;37.71;12.91;100685.31;5054891;28;20056;-59
2021/09/20 09:32:21;;;;;;;7.65;4.10;;;;;;;38.18;12.68;100688.56;5039333;28;20060;-60
2021/09/20 09:34:56;;;;;;;4.05;3.70;;;;;;;38.49;12.28;100684.28;5046578;28;20054;-60
2021/09/20 09:37:26;;;;;;;4.15;3.60;;;;;;;38.74;12.14;100688.69;5033844;28;20393;-60
2021/09/20 09:40:07;;;;;;;3.78;3.40;;;;;;;38.50;12.40;100691.78;5033622;28;20432;-60
2021/09/20 09:42:34;;;;;;;4.28;3.88;;;;;;;38.48;12.34;100682.72;5038915;28;20385;-59
2021/09/20 09:45:19;;;;;;;4.00;3.40;;;;;;;38.87;11.91;100691.25;5032917;28;20430;-60
2021/09/20 09:47:49;;;;;;;4.15;3.80;;;;;;;39.10;11.82;100701.13;5037413;28;20487;-60
2021/09/20 09:50:21;;;;;;;5.25;3.45;;;;;;;38.87;11.82;100691.25;5029394;28;20505;-60
2021/09/20 09:52:54;;;;;;;4.38;3.80;;;;;;;37.93;12.64;100690.75;5034679;28;20049;-59
2021/09/20 09:55:24;;;;;;;4.30;3.90;;;;;;;38.16;12.24;100691.97;5034581;28;20053;-59
2021/09/20 09:57:52;;;;;;;4.00;3.70;;;;;;;36.57;13.45;100700.75;5037974;28;20045;-59
2021/09/20 10:00:21;;;;;;;4.53;4.13;;;;;;;35.50;14.23;100701.59;5049804;28;20065;-60
2021/09/20 10:02:51;;;;;;;4.50;4.03;;;;;;;35.69;13.78;100704.50;5037523;28;20143;-59
2021/09/20 10:05:20;;;;;;;7.40;3.95;;;;;;;35.50;14.27;100703.69;5046054;28;20049;-58
2021/09/20 10:07:50;;;;;;;4.32;3.90;;;;;;;35.89;13.90;100710.59;5032734;28;20489;-59
2021/09/20 10:10:19;;;;;;;4.55;4.15;;;;;;;36.11;13.72;100707.47;5044743;28;20042;-59
2021/09/20 10:12:48;;;;;;;5.70;4.20;;;;;;;36.36;13.19;100694.69;5030964;28;20068;-59
2021/09/20 10:15:19;;;;;;;4.30;3.90;;;;;;;36.72;13.76;100700.84;5031696;28;20056;-59
2021/09/20 10:17:47;;;;;;;4.82;3.88;;;;;;;37.31;13.37;100700.34;5039536;28;20041;-59
2021/09/20 10:20:17;;;;;;;4.55;4.20;;;;;;;37.87;12.76;100704.38;5044137;28;20418;-59
2021/09/20 10:22:45;;;;;;;5.55;3.95;;;;;;;37.31;13.27;100709.06;5039507;28;20049;-59
2021/09/20 10:25:16;;;;;;;4.85;4.32;;;;;;;35.83;13.82;100706.75;5036934;28;20376;-59
2021/09/20 10:27:44;;;;;;;4.63;3.55;;;;;;;32.82;16.43;100709.91;5039459;28;20071;-59
2021/09/20 10:30:15;;;;;;;4.63;3.65;;;;;;;32.22;17.32;100711.38;5053797;28;20053;-60
2021/09/20 10:32:45;;;;;;;4.75;3.90;;;;;;;30.35;19.57;100722.03;5053753;28;20049;-59
2021/09/20 10:35:27;;;;;;;4.93;4.53;;;;;;;30.83;19.00;100724.63;5050554;28;20101;-59
2021/09/20 10:37:57;;;;;;;5.35;4.30;;;;;;;32.66;17.88;100707.97;5034650;28;20053;-58
2021/09/20 10:40:26;;;;;;;4.50;4.05;;;;;;;34.09;16.55;100714.44;5028219;28;20049;-59
2021/09/20 10:43:08;;;;;;;5.25;3.85;;;;;;;33.04;17.08;100710.78;5029623;28;20375;-59
2021/09/20 10:45:54;;;;;;;4.80;4.25;;;;;;;35.03;14.67;100711.50;5026642;28;20057;-58
2021/09/20 10:48:28;;;;;;;4.40;4.00;;;;;;;34.82;14.72;100712.38;5030251;28;20397;-58
2021/09/20 10:50:59;;;;;;;4.53;4.13;;;;;;;34.35;15.38;100708.50;5031412;28;20056;-59
2021/09/20 10:53:33;;;;;;;4.53;4.00;;;;;;;35.34;14.81;100713.47;5031395;28;20045;-58
2021/09/20 10:56:13;;;;;;;5.72;4.43;;;;;;;35.27;14.26;100713.81;5029412;28;20041;-57
2021/09/20 10:58:43;;;;;;;4.55;3.95;;;;;;;36.80;13.72;100704.22;5029990;28;20049;-59
2021/09/20 11:01:37;;;;;;;4.50;3.80;;;;;;;37.85;13.46;100698.28;5029846;28;20053;-58
2021/09/20 11:04:06;;;;;;;3.63;3.33;;;;;;;39.15;12.26;100703.31;5006283;28;20053;-59
2021/09/20 11:06:36;;;;;;;4.93;3.97;;;;;;;38.44;12.24;100697.47;5029041;28;20486;-59
2021/09/20 11:09:32;;;;;;;4.40;4.00;;;;;;;38.82;12.22;100701.50;5029130;28;20399;-59
2021/09/20 11:12:07;;;;;;;4.60;4.20;;;;;;;37.93;12.39;100696.56;5029652;28;20049;-58
2021/09/20 11:14:43;;;;;;;4.53;4.07;;;;;;;37.91;12.49;100696.28;5025267;28;20056;-59
2021/09/20 11:17:22;;;;;;;4.38;3.90;;;;;;;38.58;12.50;100696.66;5031107;28;20057;-59
2021/09/20 11:19:53;;;;;;;4.30;4.00;;;;;;;37.73;13.26;100696.44;5030287;28;20200;-58
2021/09/20 11:22:23;;;;;;;4.68;3.60;;;;;;;37.83;13.57;100688.44;5031011;28;20053;-59
2021/09/20 11:24:54;;;;;;;3.80;3.40;;;;;;;38.06;13.59;100686.78;5030086;28;20082;-58
2021/09/20 11:27:29;;;;;;;5.45;3.97;;;;;;;36.34;14.94;100694.38;5034496;28;20056;-57
2021/09/20 11:29:58;;;;;;;4.03;3.60;;;;;;;34.92;16.24;100693.75;5034547;28;20061;-59
2021/09/20 11:32:28;;;;;;;4.60;3.28;;;;;;;33.66;17.55;100695.03;5034922;28;20381;-57